Terminal Aerodrome Forecast
Issued by NWS Brownsville, TX

Home | Current Version | Previous Version | Text Only | Print | Product List | Glossary On
Versions: 1 2 3 4 5 6 7 8 9 10 11 12 13 14 15 16 17 18 19 20 21 22 23 24
297
FTUS44 KBRO 221148 CCA
TAFBRO
TAF COR
KBRO 221148Z 2212/2312 34009KT 4SM BR OVC004
      TEMPO 2212/2216 2SM -RADZ BR VV002
     FM221800 35010KT 6SM BR OVC007
     FM230600 14005KT 4SM BR OVC005=

USA.gov is the U.S. government's official web portal to all federal, state and local government web resources and services.